sensor_id;sensor_type;location;lat;lon;timestamp;pressure;altitude;pressure_sealevel;temperature;humidity
35778;BME280;21899;42.662;23.316;2023-04-09T00:01:08;94589.81;;;6.04;100.00
35778;BME280;21899;42.662;23.316;2023-04-09T00:03:34;94591.50;;;6.12;100.00
35778;BME280;21899;42.662;23.316;2023-04-09T00:05:59;94598.47;;;6.20;100.00
35778;BME280;21899;42.662;23.316;2023-04-09T00:08:25;94582.97;;;6.22;100.00
35778;BME280;21899;42.662;23.316;2023-04-09T00:10:51;94590.28;;;6.28;100.00
35778;BME280;21899;42.662;23.316;2023-04-09T00:13:17;94596.81;;;6.31;100.00
35778;BME280;21899;42.662;23.316;2023-04-09T00:15:44;94596.09;;;6.34;100.00
35778;BME280;21899;42.662;23.316;2023-04-09T00:18:09;94604.91;;;6.38;100.00
35778;BME280;21899;42.662;23.316;2023-04-09T00:20:35;94599.59;;;6.38;100.00
35778;BME280;21899;42.662;23.316;2023-04-09T00:23:00;94606.59;;;6.46;100.00
35778;BME280;21899;42.662;23.316;2023-04-09T00:25:26;94607.00;;;6.48;100.00
35778;BME280;21899;42.662;23.316;2023-04-09T00:27:53;94591.91;;;6.33;100.00
35778;BME280;21899;42.662;23.316;2023-04-09T00:30:18;94607.88;;;6.33;100.00
35778;BME280;21899;42.662;23.316;2023-04-09T00:32:44;94601.22;;;6.23;100.00
35778;BME280;21899;42.662;23.316;2023-04-09T00:35:10;94604.06;;;6.15;100.00
35778;BME280;21899;42.662;23.316;2023-04-09T00:37:36;94604.78;;;6.12;100.00
35778;BME280;21899;42.662;23.316;2023-04-09T00:40:02;94602.84;;;6.09;100.00
35778;BME280;21899;42.662;23.316;2023-04-09T00:42:33;94610.09;;;6.12;100.00
35778;BME280;21899;42.662;23.316;2023-04-09T00:44:59;94602.97;;;6.16;100.00
35778;BME280;21899;42.662;23.316;2023-04-09T00:47:25;94591.91;;;6.14;100.00
35778;BME280;21899;42.662;23.316;2023-04-09T00:49:52;94599.97;;;6.17;100.00
35778;BME280;21899;42.662;23.316;2023-04-09T00:52:18;94594.72;;;6.21;100.00
35778;BME280;21899;42.662;23.316;2023-04-09T00:54:43;94603.41;;;6.18;100.00
35778;BME280;21899;42.662;23.316;2023-04-09T00:57:09;94607.72;;;6.26;100.00
35778;BME280;21899;42.662;23.316;2023-04-09T00:59:37;94613.59;;;6.35;100.00
35778;BME280;21899;42.662;23.316;2023-04-09T01:02:02;94600.72;;;6.37;100.00
35778;BME280;21899;42.662;23.316;2023-04-09T01:04:28;94605.75;;;6.42;100.00
35778;BME280;21899;42.662;23.316;2023-04-09T01:07:23;94610.72;;;6.43;100.00
35778;BME280;21899;42.662;23.316;2023-04-09T01:15:43;94613.28;;;6.59;100.00
35778;BME280;21899;42.662;23.316;2023-04-09T01:18:21;94598.03;;;6.56;100.00
35778;BME280;21899;42.662;23.316;2023-04-09T01:21:07;94604.88;;;6.57;100.00
35778;BME280;21899;42.662;23.316;2023-04-09T01:29:17;94614.09;;;6.63;100.00
35778;BME280;21899;42.662;23.316;2023-04-09T01:31:44;94611.78;;;6.61;100.00
35778;BME280;21899;42.662;23.316;2023-04-09T01:34:11;94612.44;;;6.55;100.00
35778;BME280;21899;42.662;23.316;2023-04-09T01:36:39;94599.00;;;6.48;100.00
35778;BME280;21899;42.662;23.316;2023-04-09T01:39:05;94618.59;;;6.59;100.00
35778;BME280;21899;42.662;23.316;2023-04-09T01:41:32;94611.28;;;6.52;100.00
35778;BME280;21899;42.662;23.316;2023-04-09T01:43:59;94611.63;;;6.51;100.00
35778;BME280;21899;42.662;23.316;2023-04-09T01:46:26;94606.25;;;6.47;100.00
35778;BME280;21899;42.662;23.316;2023-04-09T01:48:52;94608.53;;;6.49;100.00
35778;BME280;21899;42.662;23.316;2023-04-09T01:51:18;94609.72;;;6.51;100.00
35778;BME280;21899;42.662;23.316;2023-04-09T01:53:44;94614.31;;;6.54;100.00
35778;BME280;21899;42.662;23.316;2023-04-09T01:56:10;94617.41;;;6.56;100.00
35778;BME280;21899;42.662;23.316;2023-04-09T01:58:35;94624.66;;;6.59;100.00
35778;BME280;21899;42.662;23.316;2023-04-09T02:01:08;94619.34;;;6.59;100.00
35778;BME280;21899;42.662;23.316;2023-04-09T02:03:43;94613.22;;;6.55;100.00
35778;BME280;21899;42.662;23.316;2023-04-09T02:06:16;94616.38;;;6.61;100.00
35778;BME280;21899;42.662;23.316;2023-04-09T02:08:47;94613.63;;;6.57;100.00
35778;BME280;21899;42.662;23.316;2023-04-09T02:11:15;94619.59;;;6.51;100.00
35778;BME280;21899;42.662;23.316;2023-04-09T02:13:41;94623.66;;;6.45;100.00
35778;BME280;21899;42.662;23.316;2023-04-09T02:16:10;94617.59;;;6.44;100.00
35778;BME280;21899;42.662;23.316;2023-04-09T02:18:36;94611.63;;;6.32;100.00
35778;BME280;21899;42.662;23.316;2023-04-09T02:21:02;94607.22;;;6.20;100.00
35778;BME280;21899;42.662;23.316;2023-04-09T02:23:28;94615.00;;;6.10;100.00
35778;BME280;21899;42.662;23.316;2023-04-09T02:25:56;94600.88;;;6.06;100.00
35778;BME280;21899;42.662;23.316;2023-04-09T02:28:21;94606.69;;;6.11;100.00
35778;BME280;21899;42.662;23.316;2023-04-09T02:30:47;94612.34;;;6.10;100.00
35778;BME280;21899;42.662;23.316;2023-04-09T02:33:12;94614.59;;;6.08;100.00
35778;BME280;21899;42.662;23.316;2023-04-09T02:35:38;94606.25;;;6.09;100.00
35778;BME280;21899;42.662;23.316;2023-04-09T02:38:03;94611.84;;;6.04;100.00
35778;BME280;21899;42.662;23.316;2023-04-09T02:40:29;94602.22;;;5.96;100.00
35778;BME280;21899;42.662;23.316;2023-04-09T02:42:54;94609.75;;;5.94;100.00
35778;BME280;21899;42.662;23.316;2023-04-09T02:45:20;94608.00;;;5.83;100.00
35778;BME280;21899;42.662;23.316;2023-04-09T02:47:45;94603.13;;;5.69;100.00
35778;BME280;21899;42.662;23.316;2023-04-09T02:50:10;94604.53;;;5.63;100.00
35778;BME280;21899;42.662;23.316;2023-04-09T02:52:36;94606.59;;;5.54;100.00
35778;BME280;21899;42.662;23.316;2023-04-09T02:55:01;94593.09;;;5.44;100.00
35778;BME280;21899;42.662;23.316;2023-04-09T02:57:27;94600.28;;;5.43;100.00
35778;BME280;21899;42.662;23.316;2023-04-09T02:59:52;94590.44;;;5.44;100.00
35778;BME280;21899;42.662;23.316;2023-04-09T03:02:18;94599.41;;;5.55;100.00
35778;BME280;21899;42.662;23.316;2023-04-09T03:04:43;94592.66;;;5.42;100.00
35778;BME280;21899;42.662;23.316;2023-04-09T03:07:09;94598.81;;;5.46;100.00
35778;BME280;21899;42.662;23.316;2023-04-09T03:09:34;94598.41;;;5.44;100.00
35778;BME280;21899;42.662;23.316;2023-04-09T03:12:00;94590.97;;;5.33;100.00
35778;BME280;21899;42.662;23.316;2023-04-09T03:14:26;94588.31;;;5.33;100.00
35778;BME280;21899;42.662;23.316;2023-04-09T03:16:51;94593.19;;;5.31;100.00
35778;BME280;21899;42.662;23.316;2023-04-09T03:19:17;94581.72;;;5.27;100.00
35778;BME280;21899;42.662;23.316;2023-04-09T03:21:42;94601.44;;;5.26;100.00
35778;BME280;21899;42.662;23.316;2023-04-09T03:24:08;94600.47;;;5.19;100.00
35778;BME280;21899;42.662;23.316;2023-04-09T03:26:33;94603.34;;;5.10;100.00
35778;BME280;21899;42.662;23.316;2023-04-09T03:29:03;94596.03;;;5.07;100.00
35778;BME280;21899;42.662;23.316;2023-04-09T03:31:28;94587.94;;;5.00;100.00
35778;BME280;21899;42.662;23.316;2023-04-09T03:33:54;94601.22;;;5.00;100.00
35778;BME280;21899;42.662;23.316;2023-04-09T03:36:19;94595.47;;;4.98;100.00
35778;BME280;21899;42.662;23.316;2023-04-09T03:38:45;94595.28;;;4.91;100.00
35778;BME280;21899;42.662;23.316;2023-04-09T03:41:10;94588.53;;;4.78;100.00
35778;BME280;21899;42.662;23.316;2023-04-09T03:43:35;94597.28;;;4.79;100.00
35778;BME280;21899;42.662;23.316;2023-04-09T03:46:01;94588.78;;;4.73;100.00
35778;BME280;21899;42.662;23.316;2023-04-09T03:48:35;94590.66;;;4.73;100.00
35778;BME280;21899;42.662;23.316;2023-04-09T03:51:00;94598.22;;;4.71;100.00
35778;BME280;21899;42.662;23.316;2023-04-09T03:53:25;94608.03;;;4.70;100.00
35778;BME280;21899;42.662;23.316;2023-04-09T03:55:51;94612.22;;;4.71;100.00
35778;BME280;21899;42.662;23.316;2023-04-09T03:58:16;94601.38;;;4.76;100.00
35778;BME280;21899;42.662;23.316;2023-04-09T04:00:42;94605.06;;;4.87;100.00
35778;BME280;21899;42.662;23.316;2023-04-09T04:03:07;94597.09;;;4.87;100.00
35778;BME280;21899;42.662;23.316;2023-04-09T04:05:33;94608.03;;;5.01;100.00
35778;BME280;21899;42.662;23.316;2023-04-09T04:07:58;94609.25;;;5.04;100.00
35778;BME280;21899;42.662;23.316;2023-04-09T04:10:23;94608.03;;;5.01;100.00
35778;BME280;21899;42.662;23.316;2023-04-09T04:12:49;94609.00;;;4.93;100.00
35778;BME280;21899;42.662;23.316;2023-04-09T04:15:14;94614.63;;;4.92;100.00
35778;BME280;21899;42.662;23.316;2023-04-09T04:17:40;94603.06;;;4.84;100.00
35778;BME280;21899;42.662;23.316;2023-04-09T04:20:06;94613.41;;;4.89;100.00
35778;BME280;21899;42.662;23.316;2023-04-09T04:22:32;94611.56;;;4.90;100.00
35778;BME280;21899;42.662;23.316;2023-04-09T04:24:58;94610.44;;;4.91;100.00
35778;BME280;21899;42.662;23.316;2023-04-09T04:27:24;94612.06;;;4.95;100.00
35778;BME280;21899;42.662;23.316;2023-04-09T04:29:49;94615.81;;;4.94;100.00
35778;BME280;21899;42.662;23.316;2023-04-09T04:32:15;94609.84;;;4.97;100.00
35778;BME280;21899;42.662;23.316;2023-04-09T04:34:40;94606.91;;;5.02;100.00
35778;BME280;21899;42.662;23.316;2023-04-09T04:37:05;94617.44;;;5.14;100.00
35778;BME280;21899;42.662;23.316;2023-04-09T04:39:31;94611.09;;;5.19;100.00
35778;BME280;21899;42.662;23.316;2023-04-09T04:41:56;94613.56;;;5.27;100.00
35778;BME280;21899;42.662;23.316;2023-04-09T04:44:22;94606.38;;;5.28;100.00
35778;BME280;21899;42.662;23.316;2023-04-09T04:46:47;94603.56;;;5.37;100.00
35778;BME280;21899;42.662;23.316;2023-04-09T04:49:12;94607.81;;;5.41;100.00
35778;BME280;21899;42.662;23.316;2023-04-09T04:51:38;94615.34;;;5.55;100.00
35778;BME280;21899;42.662;23.316;2023-04-09T04:54:03;94615.56;;;5.65;100.00
35778;BME280;21899;42.662;23.316;2023-04-09T04:56:28;94609.38;;;5.77;100.00
35778;BME280;21899;42.662;23.316;2023-04-09T04:58:54;94608.31;;;5.81;100.00
35778;BME280;21899;42.662;23.316;2023-04-09T05:01:19;94607.44;;;5.93;100.00
35778;BME280;21899;42.662;23.316;2023-04-09T05:03:45;94621.16;;;6.14;100.00
35778;BME280;21899;42.662;23.316;2023-04-09T05:06:10;94611.38;;;6.18;100.00
35778;BME280;21899;42.662;23.316;2023-04-09T05:08:35;94618.63;;;6.40;100.00
35778;BME280;21899;42.662;23.316;2023-04-09T05:11:01;94619.88;;;6.46;100.00
35778;BME280;21899;42.662;23.316;2023-04-09T05:13:26;94619.59;;;6.51;100.00
35778;BME280;21899;42.662;23.316;2023-04-09T05:15:52;94622.66;;;6.53;100.00
35778;BME280;21899;42.662;23.316;2023-04-09T05:18:17;94620.13;;;6.60;100.00
35778;BME280;21899;42.662;23.316;2023-04-09T05:20:43;94628.38;;;6.74;100.00
35778;BME280;21899;42.662;23.316;2023-04-09T05:23:08;94624.28;;;6.80;100.00
35778;BME280;21899;42.662;23.316;2023-04-09T05:25:37;94632.84;;;6.93;100.00
35778;BME280;21899;42.662;23.316;2023-04-09T05:28:03;94625.16;;;6.88;100.00
35778;BME280;21899;42.662;23.316;2023-04-09T05:30:28;94633.63;;;6.93;100.00
35778;BME280;21899;42.662;23.316;2023-04-09T05:32:53;94634.41;;;6.94;100.00
35778;BME280;21899;42.662;23.316;2023-04-09T05:35:19;94629.84;;;6.94;100.00
35778;BME280;21899;42.662;23.316;2023-04-09T05:37:44;94623.34;;;6.92;100.00
35778;BME280;21899;42.662;23.316;2023-04-09T05:40:10;94627.97;;;6.95;100.00
35778;BME280;21899;42.662;23.316;2023-04-09T05:42:36;94632.69;;;7.05;100.00
35778;BME280;21899;42.662;23.316;2023-04-09T05:45:02;94627.59;;;6.96;100.00
35778;BME280;21899;42.662;23.316;2023-04-09T05:47:27;94645.94;;;7.01;100.00
35778;BME280;21899;42.662;23.316;2023-04-09T05:49:53;94629.50;;;6.96;100.00
35778;BME280;21899;42.662;23.316;2023-04-09T05:52:18;94639.59;;;7.09;100.00
35778;BME280;21899;42.662;23.316;2023-04-09T05:54:45;94634.06;;;6.95;100.00
35778;BME280;21899;42.662;23.316;2023-04-09T05:57:11;94630.88;;;7.09;100.00
35778;BME280;21899;42.662;23.316;2023-04-09T05:59:36;94622.59;;;7.14;100.00
35778;BME280;21899;42.662;23.316;2023-04-09T06:02:01;94625.47;;;7.28;100.00
35778;BME280;21899;42.662;23.316;2023-04-09T06:04:27;94622.56;;;7.36;100.00
35778;BME280;21899;42.662;23.316;2023-04-09T06:06:52;94624.41;;;7.58;100.00
35778;BME280;21899;42.662;23.316;2023-04-09T06:09:18;94628.78;;;7.73;100.00
35778;BME280;21899;42.662;23.316;2023-04-09T06:11:43;94630.44;;;7.81;100.00
35778;BME280;21899;42.662;23.316;2023-04-09T06:14:08;94629.91;;;7.98;100.00
35778;BME280;21899;42.662;23.316;2023-04-09T06:16:36;94622.19;;;8.20;100.00
35778;BME280;21899;42.662;23.316;2023-04-09T06:19:02;94637.31;;;8.42;98.27
35778;BME280;21899;42.662;23.316;2023-04-09T06:21:27;94633.41;;;8.32;96.56
35778;BME280;21899;42.662;23.316;2023-04-09T06:23:52;94626.88;;;8.26;96.47
35778;BME280;21899;42.662;23.316;2023-04-09T06:26:18;94628.13;;;8.36;95.44
35778;BME280;21899;42.662;23.316;2023-04-09T06:28:43;94626.75;;;8.49;94.47
35778;BME280;21899;42.662;23.316;2023-04-09T06:31:09;94631.94;;;8.71;92.68
35778;BME280;21899;42.662;23.316;2023-04-09T06:33:34;94623.38;;;8.92;91.41
35778;BME280;21899;42.662;23.316;2023-04-09T06:36:00;94631.19;;;9.14;89.99
35778;BME280;21899;42.662;23.316;2023-04-09T06:38:25;94632.63;;;9.45;87.17
35778;BME280;21899;42.662;23.316;2023-04-09T06:40:50;94637.97;;;9.49;86.15
35778;BME280;21899;42.662;23.316;2023-04-09T06:43:16;94642.22;;;9.53;86.50
35778;BME280;21899;42.662;23.316;2023-04-09T06:45:41;94643.75;;;9.58;86.18
35778;BME280;21899;42.662;23.316;2023-04-09T06:48:07;94637.97;;;9.45;84.45
35778;BME280;21899;42.662;23.316;2023-04-09T06:50:32;94649.06;;;9.54;84.21
35778;BME280;21899;42.662;23.316;2023-04-09T06:52:58;94644.53;;;9.58;84.51
35778;BME280;21899;42.662;23.316;2023-04-09T06:55:23;94652.75;;;9.86;83.14
35778;BME280;21899;42.662;23.316;2023-04-09T06:57:48;94644.06;;;10.00;81.48
35778;BME280;21899;42.662;23.316;2023-04-09T07:00:14;94639.59;;;10.21;80.61
35778;BME280;21899;42.662;23.316;2023-04-09T07:02:40;94644.16;;;10.14;80.38
35778;BME280;21899;42.662;23.316;2023-04-09T07:05:06;94647.00;;;9.84;80.58
35778;BME280;21899;42.662;23.316;2023-04-09T07:07:31;94646.97;;;9.81;80.45
35778;BME280;21899;42.662;23.316;2023-04-09T07:09:57;94643.69;;;10.01;79.31
35778;BME280;21899;42.662;23.316;2023-04-09T07:12:33;94649.84;;;10.09;80.08
35778;BME280;21899;42.662;23.316;2023-04-09T07:15:03;94651.53;;;10.41;77.51
35778;BME280;21899;42.662;23.316;2023-04-09T07:17:30;94651.06;;;10.22;76.92
35778;BME280;21899;42.662;23.316;2023-04-09T07:19:55;94650.28;;;10.14;77.48
35778;BME280;21899;42.662;23.316;2023-04-09T07:22:22;94647.28;;;10.30;77.26
35778;BME280;21899;42.662;23.316;2023-04-09T07:24:48;94638.56;;;10.43;75.52
35778;BME280;21899;42.662;23.316;2023-04-09T07:27:26;94657.34;;;10.54;75.01
35778;BME280;21899;42.662;23.316;2023-04-09T07:29:56;94647.44;;;10.69;75.55
35778;BME280;21899;42.662;23.316;2023-04-09T07:32:22;94639.31;;;10.44;74.01
35778;BME280;21899;42.662;23.316;2023-04-09T07:34:50;94647.03;;;10.63;74.06
35778;BME280;21899;42.662;23.316;2023-04-09T07:37:16;94642.53;;;10.95;72.12
35778;BME280;21899;42.662;23.316;2023-04-09T07:39:41;94659.78;;;11.26;69.97
35778;BME280;21899;42.662;23.316;2023-04-09T07:42:07;94649.03;;;11.01;67.67
35778;BME280;21899;42.662;23.316;2023-04-09T07:44:33;94659.00;;;11.08;67.68
35778;BME280;21899;42.662;23.316;2023-04-09T07:47:00;94659.34;;;10.96;68.54
35778;BME280;21899;42.662;23.316;2023-04-09T07:49:25;94659.00;;;10.94;69.39
35778;BME280;21899;42.662;23.316;2023-04-09T07:51:50;94650.50;;;10.71;70.33
35778;BME280;21899;42.662;23.316;2023-04-09T07:54:16;94658.19;;;10.76;71.84
35778;BME280;21899;42.662;23.316;2023-04-09T07:56:41;94669.63;;;10.66;72.10
35778;BME280;21899;42.662;23.316;2023-04-09T07:59:07;94656.59;;;10.61;73.57
35778;BME280;21899;42.662;23.316;2023-04-09T08:01:32;94662.41;;;10.84;72.76
35778;BME280;21899;42.662;23.316;2023-04-09T08:03:57;94667.00;;;10.87;72.56
35778;BME280;21899;42.662;23.316;2023-04-09T08:06:23;94665.47;;;10.86;72.31
35778;BME280;21899;42.662;23.316;2023-04-09T08:08:48;94678.06;;;10.82;71.94
35778;BME280;21899;42.662;23.316;2023-04-09T08:11:13;94671.94;;;10.81;72.63
35778;BME280;21899;42.662;23.316;2023-04-09T08:13:39;94674.25;;;10.90;71.89
35778;BME280;21899;42.662;23.316;2023-04-09T08:16:05;94661.66;;;10.94;70.59
35778;BME280;21899;42.662;23.316;2023-04-09T08:18:30;94678.91;;;11.10;70.50
35778;BME280;21899;42.662;23.316;2023-04-09T08:20:56;94672.69;;;10.75;69.09
35778;BME280;21899;42.662;23.316;2023-04-09T08:23:21;94667.31;;;10.64;70.94
35778;BME280;21899;42.662;23.316;2023-04-09T08:25:47;94673.50;;;10.93;70.86
35778;BME280;21899;42.662;23.316;2023-04-09T08:28:12;94671.19;;;10.81;70.59
35778;BME280;21899;42.662;23.316;2023-04-09T08:30:37;94660.34;;;10.45;71.41
35778;BME280;21899;42.662;23.316;2023-04-09T08:33:03;94676.72;;;10.33;72.67
35778;BME280;21899;42.662;23.316;2023-04-09T08:35:29;94668.66;;;10.23;73.87
35778;BME280;21899;42.662;23.316;2023-04-09T08:37:55;94670.56;;;10.22;74.81
35778;BME280;21899;42.662;23.316;2023-04-09T08:40:21;94673.19;;;10.15;75.33
35778;BME280;21899;42.662;23.316;2023-04-09T08:42:52;94669.28;;;10.06;76.53
35778;BME280;21899;42.662;23.316;2023-04-09T08:45:18;94676.00;;;9.82;77.22
35778;BME280;21899;42.662;23.316;2023-04-09T08:50:30;94664.41;;;10.11;77.97
35778;BME280;21899;42.662;23.316;2023-04-09T08:52:57;94667.09;;;10.18;nan
35778;BME280;21899;42.662;23.316;2023-04-09T08:55:23;94669.22;;;9.95;77.96
35778;BME280;21899;42.662;23.316;2023-04-09T08:57:48;94682.53;;;9.85;79.66
35778;BME280;21899;42.662;23.316;2023-04-09T09:00:14;94664.63;;;9.92;79.85
35778;BME280;21899;42.662;23.316;2023-04-09T09:05:41;94670.25;;;10.38;76.17
35778;BME280;21899;42.662;23.316;2023-04-09T09:08:09;94663.78;;;10.42;76.21
35778;BME280;21899;42.662;23.316;2023-04-09T09:10:44;94666.41;;;10.32;75.76
35778;BME280;21899;42.662;23.316;2023-04-09T09:13:17;94659.91;;;10.29;76.60
35778;BME280;21899;42.662;23.316;2023-04-09T09:15:43;94660.66;;;10.33;75.88
35778;BME280;21899;42.662;23.316;2023-04-09T09:18:10;94658.44;;;10.49;74.79
35778;BME280;21899;42.662;23.316;2023-04-09T09:20:35;94659.72;;;10.84;72.57
35778;BME280;21899;42.662;23.316;2023-04-09T09:23:02;94640.94;;;10.70;70.60
35778;BME280;21899;42.662;23.316;2023-04-09T09:25:27;94644.03;;;10.79;71.75
35778;BME280;21899;42.662;23.316;2023-04-09T09:28:06;94638.66;;;10.75;72.18
35778;BME280;21899;42.662;23.316;2023-04-09T09:30:34;94653.69;;;11.18;70.18
35778;BME280;21899;42.662;23.316;2023-04-09T09:33:10;94657.09;;;11.12;68.89
35778;BME280;21899;42.662;23.316;2023-04-09T09:35:46;94652.09;;;10.96;68.34
35778;BME280;21899;42.662;23.316;2023-04-09T09:38:13;94657.06;;;10.98;68.56
35778;BME280;21899;42.662;23.316;2023-04-09T09:40:40;94647.47;;;10.86;68.64
35778;BME280;21899;42.662;23.316;2023-04-09T09:43:05;94645.22;;;10.92;68.72
35778;BME280;21899;42.662;23.316;2023-04-09T09:45:32;94636.47;;;11.33;67.66
35778;BME280;21899;42.662;23.316;2023-04-09T09:47:57;94638.41;;;11.68;65.76
35778;BME280;21899;42.662;23.316;2023-04-09T09:50:23;94648.72;;;11.62;65.72
35778;BME280;21899;42.662;23.316;2023-04-09T09:53:03;94638.75;;;11.88;63.93
35778;BME280;21899;42.662;23.316;2023-04-09T09:55:31;94624.56;;;11.87;61.41
35778;BME280;21899;42.662;23.316;2023-04-09T09:58:01;94633.78;;;11.82;61.89
35778;BME280;21899;42.662;23.316;2023-04-09T10:00:31;94636.09;;;11.88;59.51
35778;BME280;21899;42.662;23.316;2023-04-09T10:03:09;94637.19;;;12.04;60.42
35778;BME280;21899;42.662;23.316;2023-04-09T10:05:36;94632.94;;;12.17;60.06
35778;BME280;21899;42.662;23.316;2023-04-09T10:08:03;94632.13;;;12.34;59.46
35778;BME280;21899;42.662;23.316;2023-04-09T10:10:29;94633.34;;;12.19;58.04
35778;BME280;21899;42.662;23.316;2023-04-09T10:12:55;94629.88;;;12.15;58.24
35778;BME280;21899;42.662;23.316;2023-04-09T10:15:22;94624.50;;;12.19;55.39
35778;BME280;21899;42.662;23.316;2023-04-09T10:17:47;94625.22;;;12.40;54.66
35778;BME280;21899;42.662;23.316;2023-04-09T10:20:17;94632.13;;;12.34;54.25
35778;BME280;21899;42.662;23.316;2023-04-09T10:22:47;94610.59;;;12.48;55.22
35778;BME280;21899;42.662;23.316;2023-04-09T10:25:14;94622.88;;;12.49;54.08
35778;BME280;21899;42.662;23.316;2023-04-09T10:27:41;94603.69;;;12.51;53.06
35778;BME280;21899;42.662;23.316;2023-04-09T10:30:30;94612.34;;;12.79;53.22
35778;BME280;21899;42.662;23.316;2023-04-09T10:33:08;94617.25;;;12.98;52.19
35778;BME280;21899;42.662;23.316;2023-04-09T10:35:33;94621.47;;;12.99;52.28
35778;BME280;21899;42.662;23.316;2023-04-09T10:37:59;94597.22;;;13.17;50.29
35778;BME280;21899;42.662;23.316;2023-04-09T10:40:27;94603.66;;;13.27;50.84
35778;BME280;21899;42.662;23.316;2023-04-09T10:42:53;94606.44;;;13.60;49.58
35778;BME280;21899;42.662;23.316;2023-04-09T10:45:20;94598.50;;;13.87;49.77
35778;BME280;21899;42.662;23.316;2023-04-09T10:47:48;94593.88;;;14.28;49.56
35778;BME280;21899;42.662;23.316;2023-04-09T10:50:20;94588.16;;;14.56;47.82
35778;BME280;21899;42.662;23.316;2023-04-09T10:52:46;94593.91;;;14.88;46.93
35778;BME280;21899;42.662;23.316;2023-04-09T10:57:56;94585.00;;;14.61;46.71
35778;BME280;21899;42.662;23.316;2023-04-09T11:00:22;94576.94;;;14.61;45.79
35778;BME280;21899;42.662;23.316;2023-04-09T11:05:38;94566.13;;;14.91;46.36
35778;BME280;21899;42.662;23.316;2023-04-09T11:10:33;94567.59;;;15.22;45.70
35778;BME280;21899;42.662;23.316;2023-04-09T11:12:59;94573.41;;;15.21;45.12
35778;BME280;21899;42.662;23.316;2023-04-09T11:15:25;94567.00;;;14.85;45.75
35778;BME280;21899;42.662;23.316;2023-04-09T11:17:51;94568.59;;;14.82;45.29
35778;BME280;21899;42.662;23.316;2023-04-09T11:20:20;94572.06;;;14.53;45.78
35778;BME280;21899;42.662;23.316;2023-04-09T11:22:46;94571.72;;;14.13;46.88
35778;BME280;21899;42.662;23.316;2023-04-09T11:25:22;94564.97;;;13.95;47.68
35778;BME280;21899;42.662;23.316;2023-04-09T11:27:49;94563.97;;;13.82;49.73
35778;BME280;21899;42.662;23.316;2023-04-09T11:30:15;94567.47;;;13.79;51.94
35778;BME280;21899;42.662;23.316;2023-04-09T11:32:41;94566.22;;;13.50;51.03
35778;BME280;21899;42.662;23.316;2023-04-09T11:35:14;94569.50;;;13.24;50.69
35778;BME280;21899;42.662;23.316;2023-04-09T11:37:41;94567.22;;;13.22;53.75
35778;BME280;21899;42.662;23.316;2023-04-09T11:40:19;94569.47;;;13.27;55.02
35778;BME280;21899;42.662;23.316;2023-04-09T11:42:48;94547.19;;;13.30;50.99
35778;BME280;21899;42.662;23.316;2023-04-09T11:45:14;94556.69;;;13.42;49.61
35778;BME280;21899;42.662;23.316;2023-04-09T11:47:40;94557.34;;;13.53;49.77
35778;BME280;21899;42.662;23.316;2023-04-09T11:50:08;94566.50;;;13.59;50.25
35778;BME280;21899;42.662;23.316;2023-04-09T11:52:34;94549.66;;;13.55;52.18
35778;BME280;21899;42.662;23.316;2023-04-09T11:55:06;94550.28;;;13.69;51.85
35778;BME280;21899;42.662;23.316;2023-04-09T12:00:10;94551.78;;;13.70;52.47
35778;BME280;21899;42.662;23.316;2023-04-09T12:03:00;94540.28;;;13.70;52.52
35778;BME280;21899;42.662;23.316;2023-04-09T12:05:31;94535.69;;;13.67;52.11
35778;BME280;21899;42.662;23.316;2023-04-09T12:07:59;94537.59;;;13.70;54.03
35778;BME280;21899;42.662;23.316;2023-04-09T12:10:27;94534.44;;;13.78;53.78
35778;BME280;21899;42.662;23.316;2023-04-09T12:12:53;94545.44;;;13.91;54.50
35778;BME280;21899;42.662;23.316;2023-04-09T12:15:21;94545.09;;;13.85;55.22
35778;BME280;21899;42.662;23.316;2023-04-09T12:17:52;94537.88;;;13.42;57.56
35778;BME280;21899;42.662;23.316;2023-04-09T12:20:31;94540.22;;;13.36;63.06
35778;BME280;21899;42.662;23.316;2023-04-09T12:22:58;94545.19;;;13.38;62.42
35778;BME280;21899;42.662;23.316;2023-04-09T12:25:25;94535.88;;;13.49;64.72
35778;BME280;21899;42.662;23.316;2023-04-09T12:27:50;94538.34;;;13.70;60.60
35778;BME280;21899;42.662;23.316;2023-04-09T12:30:15;94529.53;;;14.03;57.13
35778;BME280;21899;42.662;23.316;2023-04-09T12:32:41;94523.16;;;14.24;57.11
35778;BME280;21899;42.662;23.316;2023-04-09T12:35:09;94530.66;;;14.39;52.51
35778;BME280;21899;42.662;23.316;2023-04-09T12:37:34;94520.94;;;14.49;51.22
35778;BME280;21899;42.662;23.316;2023-04-09T12:40:00;94520.31;;;14.65;52.44
35778;BME280;21899;42.662;23.316;2023-04-09T12:42:25;94520.91;;;15.02;50.31
35778;BME280;21899;42.662;23.316;2023-04-09T12:44:50;94524.44;;;15.22;50.66
35778;BME280;21899;42.662;23.316;2023-04-09T12:47:16;94518.03;;;15.39;48.97
35778;BME280;21899;42.662;23.316;2023-04-09T12:49:43;94515.91;;;15.50;48.30
35778;BME280;21899;42.662;23.316;2023-04-09T12:52:10;94521.09;;;15.41;46.41
35778;BME280;21899;42.662;23.316;2023-04-09T12:54:36;94527.69;;;15.37;46.94
35778;BME280;21899;42.662;23.316;2023-04-09T12:57:01;94517.56;;;15.44;46.47
35778;BME280;21899;42.662;23.316;2023-04-09T12:59:27;94522.13;;;15.47;45.01
35778;BME280;21899;42.662;23.316;2023-04-09T13:01:52;94505.03;;;15.08;44.30
35778;BME280;21899;42.662;23.316;2023-04-09T13:04:18;94511.53;;;14.87;45.43
35778;BME280;21899;42.662;23.316;2023-04-09T13:06:43;94512.34;;;14.84;45.92
35778;BME280;21899;42.662;23.316;2023-04-09T13:09:08;94511.38;;;14.71;46.69
35778;BME280;21899;42.662;23.316;2023-04-09T13:11:34;94505.53;;;14.76;46.62
35778;BME280;21899;42.662;23.316;2023-04-09T13:13:59;94508.84;;;14.87;46.43
35778;BME280;21899;42.662;23.316;2023-04-09T13:16:25;94500.84;;;14.80;43.63